createdAt,value
2022-10-05T00:00:53.539Z,101515.00
2022-10-05T00:03:22.924Z,101521.00
2022-10-05T00:05:50.304Z,101514.00
2022-10-05T00:08:25.426Z,101497.00
2022-10-05T00:26:57.638Z,101516.00
2022-10-05T00:29:25.353Z,101515.00
2022-10-05T00:31:54.540Z,101507.00
2022-10-05T00:34:21.746Z,101504.00
2022-10-05T00:36:49.278Z,101512.00
2022-10-05T00:39:19.276Z,101514.00
2022-10-05T00:42:04.454Z,101508.00
2022-10-05T00:44:35.291Z,101503.00
2022-10-05T00:47:36.193Z,101493.00
2022-10-05T00:50:31.177Z,101497.00
2022-10-05T00:53:42.676Z,101482.00
2022-10-05T00:56:33.791Z,101488.00
2022-10-05T00:59:40.789Z,101487.00
2022-10-05T01:02:34.351Z,101490.00
2022-10-05T01:05:15.995Z,101477.00
2022-10-05T01:08:02.521Z,101481.00
2022-10-05T01:10:43.944Z,101485.00
2022-10-05T01:13:33.010Z,101476.00
2022-10-05T01:16:30.185Z,101478.00
2022-10-05T01:19:46.672Z,101475.00
2022-10-05T01:22:38.224Z,101457.00
2022-10-05T01:26:05.170Z,101470.00
2022-10-05T01:28:59.674Z,101470.00
2022-10-05T01:31:53.873Z,101465.00
2022-10-05T01:34:35.506Z,101467.00
2022-10-05T01:37:20.955Z,101462.00
2022-10-05T01:40:13.398Z,101469.00
2022-10-05T01:43:09.043Z,101462.00
2022-10-05T01:46:07.066Z,101456.00
2022-10-05T01:48:58.141Z,101451.00
2022-10-05T01:51:54.593Z,101454.00
2022-10-05T01:54:51.823Z,101459.00
2022-10-05T01:57:58.728Z,101450.00
2022-10-05T02:00:26.546Z,101445.00
2022-10-05T02:03:19.575Z,101444.00
2022-10-05T02:06:20.017Z,101439.00
2022-10-05T02:09:03.590Z,101433.00
2022-10-05T02:11:31.056Z,101430.00
2022-10-05T02:14:06.908Z,101428.00
2022-10-05T02:16:44.363Z,101426.00
2022-10-05T02:19:37.937Z,101428.00
2022-10-05T02:22:16.216Z,101415.00
2022-10-05T02:24:57.531Z,101419.00
2022-10-05T02:27:38.739Z,101423.00
2022-10-05T02:30:12.795Z,101410.00
2022-10-05T02:32:56.512Z,101411.00
2022-10-05T02:35:23.669Z,101407.00
2022-10-05T02:38:23.887Z,101408.00
2022-10-05T02:41:25.840Z,101410.00
2022-10-05T02:44:21.149Z,101402.00
2022-10-05T02:47:46.576Z,101396.00
2022-10-05T02:50:16.535Z,101396.00
2022-10-05T02:53:39.310Z,101395.00
2022-10-05T02:56:35.773Z,101389.00
2022-10-05T02:59:50.415Z,101382.00
2022-10-05T03:02:35.943Z,101383.00
2022-10-05T03:05:24.562Z,101385.00
2022-10-05T03:08:19.247Z,101386.00
2022-10-05T03:11:18.698Z,101367.00
2022-10-05T03:14:14.502Z,101371.00
2022-10-05T03:17:03.048Z,101364.00
2022-10-05T03:19:40.877Z,101371.00
2022-10-05T03:22:20.001Z,101374.00
2022-10-05T03:25:17.838Z,101367.00
2022-10-05T03:27:54.238Z,101368.00
2022-10-05T03:30:25.738Z,101351.00
2022-10-05T03:33:42.761Z,101364.00
2022-10-05T03:36:37.863Z,101361.00
2022-10-05T03:39:21.474Z,101351.00
2022-10-05T03:42:10.560Z,101363.00
2022-10-05T03:44:49.185Z,101350.00
2022-10-05T03:47:34.407Z,101352.00
2022-10-05T03:50:22.862Z,101350.00
2022-10-05T03:53:02.143Z,101366.00
2022-10-05T03:55:49.688Z,101351.00
2022-10-05T03:58:30.457Z,101357.00
2022-10-05T04:01:05.617Z,101358.00
2022-10-05T04:03:48.403Z,101349.00
2022-10-05T04:06:26.549Z,101350.00
2022-10-05T04:09:10.192Z,101350.00
2022-10-05T04:11:58.205Z,101350.00
2022-10-05T04:14:41.518Z,101357.00
2022-10-05T04:17:32.687Z,101346.00
2022-10-05T04:20:07.883Z,101358.00
2022-10-05T04:22:43.280Z,101350.00
2022-10-05T04:25:46.650Z,101348.00
2022-10-05T04:28:29.640Z,101357.00
2022-10-05T04:31:04.680Z,101360.00
2022-10-05T04:33:33.442Z,101348.00
2022-10-05T04:36:36.335Z,101348.00
2022-10-05T04:39:33.264Z,101346.00
2022-10-05T04:42:18.177Z,101345.00
2022-10-05T04:45:09.770Z,101350.00
2022-10-05T04:47:47.923Z,101355.00
2022-10-05T04:50:48.465Z,101346.00
2022-10-05T04:53:30.594Z,101347.00
2022-10-05T04:56:41.430Z,101338.00
2022-10-05T05:00:28.721Z,101345.00
2022-10-05T05:03:13.582Z,101345.00
2022-10-05T05:06:15.230Z,101340.00
2022-10-05T05:08:47.594Z,101338.00
2022-10-05T05:12:06.858Z,101349.00
2022-10-05T05:15:14.379Z,101341.00
2022-10-05T05:18:04.124Z,101342.00
2022-10-05T05:21:14.991Z,101341.00
2022-10-05T05:24:19.408Z,101336.00
2022-10-05T05:27:05.327Z,101338.00
2022-10-05T05:30:06.053Z,101335.00
2022-10-05T05:32:41.031Z,101345.00
2022-10-05T05:35:23.296Z,101341.00
2022-10-05T05:38:25.391Z,101342.00
2022-10-05T05:41:25.209Z,101338.00
2022-10-05T05:44:19.172Z,101335.00
2022-10-05T05:47:24.069Z,101327.00
2022-10-05T05:50:07.315Z,101328.00
2022-10-05T05:53:05.770Z,101317.00
2022-10-05T05:55:47.779Z,101322.00
2022-10-05T05:58:34.601Z,101328.00
2022-10-05T06:01:37.686Z,101325.00
2022-10-05T06:04:16.896Z,101318.00
2022-10-05T06:06:51.633Z,101318.00
2022-10-05T06:09:28.925Z,101325.00
2022-10-05T06:12:09.147Z,101308.00
2022-10-05T06:14:51.445Z,101320.00
2022-10-05T06:17:30.786Z,101322.00
2022-10-05T06:20:04.890Z,101330.00
2022-10-05T06:22:43.296Z,101323.00
2022-10-05T06:25:13.160Z,101329.00
2022-10-05T06:28:13.906Z,101330.00
2022-10-05T06:30:51.813Z,101332.00
2022-10-05T06:33:52.602Z,101323.00
2022-10-05T06:36:45.793Z,101324.00
2022-10-05T06:39:30.051Z,101327.00
2022-10-05T06:42:28.408Z,101312.00
2022-10-05T06:45:19.473Z,101331.00
2022-10-05T06:48:05.634Z,101320.00
2022-10-05T06:50:39.204Z,101313.00
2022-10-05T06:53:27.503Z,101312.00
2022-10-05T06:56:12.303Z,101317.00
2022-10-05T06:58:53.857Z,101320.00
2022-10-05T07:01:57.782Z,101321.00
2022-10-05T07:04:45.977Z,101309.00
2022-10-05T07:07:44.184Z,101306.00
2022-10-05T07:10:45.647Z,101312.00
2022-10-05T07:13:49.805Z,101309.00
2022-10-05T07:16:52.253Z,101308.00
2022-10-05T07:19:31.961Z,101316.00
2022-10-05T07:22:35.576Z,101314.00
2022-10-05T07:25:33.966Z,101316.00
2022-10-05T07:28:14.120Z,101318.00
2022-10-05T07:30:57.985Z,101314.00
2022-10-05T07:33:43.151Z,101312.00
2022-10-05T07:37:04.947Z,101309.00
2022-10-05T07:40:00.627Z,101316.00
2022-10-05T07:42:51.751Z,101315.00
2022-10-05T07:46:03.053Z,101318.00
2022-10-05T07:48:50.643Z,101311.00
2022-10-05T07:51:45.144Z,101324.00
2022-10-05T07:55:02.133Z,101321.00
2022-10-05T07:57:59.859Z,101323.00
2022-10-05T08:01:04.802Z,101318.00
2022-10-05T08:03:56.511Z,101319.00
2022-10-05T08:06:39.102Z,101315.00
2022-10-05T08:09:50.349Z,101321.00
2022-10-05T08:12:27.035Z,101313.00
2022-10-05T08:15:13.987Z,101326.00
2022-10-05T08:18:03.001Z,101316.00
2022-10-05T08:20:40.132Z,101319.00
2022-10-05T08:23:33.868Z,101312.00
2022-10-05T08:26:06.570Z,101316.00
2022-10-05T08:28:54.595Z,101318.00
2022-10-05T08:31:33.741Z,101312.00
2022-10-05T08:34:22.659Z,101309.00
2022-10-05T08:37:23.865Z,101315.00
2022-10-05T08:40:21.685Z,101318.00
2022-10-05T08:43:00.029Z,101312.00
2022-10-05T08:46:04.386Z,101311.00
2022-10-05T08:48:31.565Z,101304.00
2022-10-05T08:51:42.893Z,101308.00
2022-10-05T08:54:18.867Z,101298.00
2022-10-05T08:57:06.286Z,101300.00
2022-10-05T09:00:10.662Z,101298.00
2022-10-05T09:03:35.414Z,101295.00
2022-10-05T09:06:25.747Z,101280.00
2022-10-05T09:09:42.195Z,101283.00
2022-10-05T09:12:31.705Z,101277.00
2022-10-05T09:15:52.832Z,101273.00
2022-10-05T09:18:57.249Z,101285.00
2022-10-05T09:21:42.160Z,101289.00
2022-10-05T09:24:15.642Z,101285.00
2022-10-05T09:27:03.991Z,101282.00
2022-10-05T09:29:52.616Z,101271.00
2022-10-05T09:32:47.261Z,101272.00
2022-10-05T09:35:20.856Z,101275.00
2022-10-05T09:38:16.205Z,101273.00
2022-10-05T09:41:10.845Z,101276.00
2022-10-05T09:44:03.043Z,101272.00
2022-10-05T09:46:51.690Z,101267.00
2022-10-05T09:50:11.309Z,101261.00
2022-10-05T09:53:07.292Z,101254.00
2022-10-05T09:55:49.200Z,101260.00
2022-10-05T09:58:44.924Z,101256.00
2022-10-05T10:01:51.793Z,101260.00
2022-10-05T10:05:11.822Z,101254.00
2022-10-05T10:07:52.169Z,101258.00
2022-10-05T10:10:49.902Z,101248.00
2022-10-05T10:14:04.418Z,101252.00
2022-10-05T10:16:54.832Z,101251.00
2022-10-05T10:19:52.478Z,101243.00
2022-10-05T10:23:09.998Z,101244.00
2022-10-05T10:26:12.002Z,101238.00
2022-10-05T10:29:08.017Z,101231.00
2022-10-05T10:31:53.592Z,101235.00
2022-10-05T10:35:01.248Z,101231.00
2022-10-05T10:37:42.559Z,101225.00
2022-10-05T10:40:38.605Z,101221.00
2022-10-05T10:43:51.896Z,101222.00
2022-10-05T10:46:27.925Z,101223.00
2022-10-05T10:49:26.274Z,101215.00
2022-10-05T10:52:26.083Z,101204.00
2022-10-05T10:55:33.258Z,101215.00
2022-10-05T10:58:21.324Z,101206.00
2022-10-05T11:01:20.068Z,101204.00
2022-10-05T11:04:23.759Z,101196.00
2022-10-05T11:07:18.248Z,101192.00
2022-10-05T11:10:20.243Z,101184.00
2022-10-05T11:13:43.149Z,101177.00
2022-10-05T11:16:43.362Z,101179.00
2022-10-05T11:20:02.453Z,101179.00
2022-10-05T11:22:57.837Z,101171.00
2022-10-05T11:25:58.230Z,101171.00
2022-10-05T11:29:04.832Z,101173.00
2022-10-05T11:32:17.994Z,101172.00
2022-10-05T11:35:18.477Z,101158.00
2022-10-05T11:38:37.738Z,101149.00
2022-10-05T11:41:44.211Z,101142.00
2022-10-05T11:44:44.016Z,101133.00
2022-10-05T11:48:04.015Z,101126.00
2022-10-05T11:50:43.169Z,101125.00
2022-10-05T11:53:46.214Z,101116.00
2022-10-05T11:56:44.817Z,101129.00
2022-10-05T11:59:42.452Z,101113.00
2022-10-05T12:02:46.387Z,101103.00
2022-10-05T12:05:56.915Z,101101.00
2022-10-05T12:08:58.095Z,101096.00
2022-10-05T12:12:06.083Z,101087.00
2022-10-05T12:14:50.632Z,101087.00
2022-10-05T12:17:57.095Z,101085.00
2022-10-05T12:20:46.427Z,101076.00
2022-10-05T12:23:43.699Z,101080.00
2022-10-05T12:26:41.217Z,101067.00
2022-10-05T12:29:25.728Z,101067.00
2022-10-05T12:32:34.910Z,101060.00
2022-10-05T12:35:47.786Z,101054.00
2022-10-05T12:38:50.227Z,101053.00
2022-10-05T12:41:40.557Z,101043.00
2022-10-05T12:44:33.357Z,101042.00
2022-10-05T12:47:15.368Z,101039.00
2022-10-05T12:50:23.758Z,101039.00
2022-10-05T12:53:33.472Z,101038.00
2022-10-05T12:56:51.841Z,101022.00
2022-10-05T12:59:34.093Z,101028.00
2022-10-05T13:02:39.295Z,101025.00
2022-10-05T13:05:09.590Z,101028.00
2022-10-05T13:07:57.064Z,101020.00
2022-10-05T13:10:48.689Z,101013.00
2022-10-05T13:13:56.284Z,101016.00
2022-10-05T13:16:36.416Z,101015.00
2022-10-05T13:19:12.654Z,101008.00
2022-10-05T13:22:01.876Z,101007.00
2022-10-05T13:24:49.588Z,101008.00
2022-10-05T13:27:36.778Z,101009.00
2022-10-05T13:30:19.661Z,101009.00
2022-10-05T13:33:11.143Z,100999.00
2022-10-05T13:36:10.598Z,101009.00
2022-10-05T13:39:35.755Z,101014.00
2022-10-05T13:42:15.059Z,101010.00
2022-10-05T13:45:32.074Z,101008.00
2022-10-05T13:48:40.823Z,101011.00
2022-10-05T13:51:28.657Z,101026.00
2022-10-05T13:54:24.457Z,101016.00
2022-10-05T13:57:05.845Z,101016.00
2022-10-05T13:59:58.774Z,101010.00
2022-10-05T14:02:40.435Z,101023.00
2022-10-05T14:05:31.163Z,101029.00
2022-10-05T14:08:17.707Z,101021.00
2022-10-05T14:10:47.899Z,101017.00
2022-10-05T14:13:32.282Z,101013.00
2022-10-05T14:16:13.528Z,101030.00
2022-10-05T14:19:07.081Z,101033.00
2022-10-05T14:22:04.055Z,101023.00
2022-10-05T14:24:44.803Z,101027.00
2022-10-05T14:27:55.913Z,101029.00
2022-10-05T14:30:29.641Z,101035.00
2022-10-05T14:33:06.046Z,101037.00
2022-10-05T14:35:58.034Z,101044.00
2022-10-05T14:38:32.618Z,101042.00
2022-10-05T14:41:19.163Z,101041.00
2022-10-05T14:44:15.614Z,101048.00
2022-10-05T14:47:22.751Z,101046.00
2022-10-05T14:50:17.000Z,101044.00
2022-10-05T14:52:59.866Z,101053.00
2022-10-05T14:55:57.742Z,101055.00
2022-10-05T14:58:35.227Z,101060.00
2022-10-05T15:01:36.903Z,101059.00
2022-10-05T15:04:43.014Z,101072.00
2022-10-05T15:07:39.080Z,101071.00
2022-10-05T15:10:27.101Z,101070.00
2022-10-05T15:13:13.493Z,101082.00
2022-10-05T15:16:00.275Z,101079.00
2022-10-05T15:18:53.452Z,101093.00
2022-10-05T15:22:01.221Z,101088.00
2022-10-05T15:24:43.724Z,101093.00
2022-10-05T15:27:25.780Z,101105.00
2022-10-05T15:30:18.320Z,101106.00
2022-10-05T15:33:23.380Z,101114.00
2022-10-05T15:36:19.026Z,101118.00
2022-10-05T15:39:29.733Z,101124.00
2022-10-05T15:42:03.376Z,101131.00
2022-10-05T15:45:20.024Z,101148.00
2022-10-05T15:48:11.324Z,101151.00
2022-10-05T15:50:45.945Z,101156.00
2022-10-05T15:53:44.212Z,101166.00
2022-10-05T15:56:33.868Z,101187.00
2022-10-05T15:59:30.303Z,101181.00
2022-10-05T16:02:10.157Z,101197.00
2022-10-05T16:04:54.259Z,101212.00
2022-10-05T16:07:49.552Z,101218.00
2022-10-05T16:10:24.233Z,101210.00
2022-10-05T16:13:05.515Z,101233.00
2022-10-05T16:15:58.429Z,101233.00
2022-10-05T16:19:25.175Z,101244.00
2022-10-05T16:22:22.509Z,101236.00
2022-10-05T16:25:24.781Z,101232.00
2022-10-05T16:28:39.492Z,101243.00
2022-10-05T16:31:31.312Z,101227.00
2022-10-05T16:34:27.832Z,101246.00
2022-10-05T16:37:14.522Z,101233.00
2022-10-05T16:40:00.856Z,101246.00
2022-10-05T16:43:08.101Z,101243.00
2022-10-05T16:46:27.701Z,101258.00
2022-10-05T16:49:34.796Z,101242.00
2022-10-05T16:52:08.667Z,101244.00
2022-10-05T16:54:49.932Z,101240.00
2022-10-05T16:57:38.896Z,101236.00
2022-10-05T17:00:16.096Z,101248.00
2022-10-05T17:03:05.195Z,101252.00
2022-10-05T17:06:24.159Z,101254.00
2022-10-05T17:09:18.922Z,101252.00
2022-10-05T17:12:11.907Z,101259.00
2022-10-05T17:15:31.763Z,101259.00
2022-10-05T17:18:51.014Z,101256.00
2022-10-05T17:21:45.577Z,101264.00
2022-10-05T17:24:19.812Z,101265.00
2022-10-05T17:26:52.877Z,101263.00
2022-10-05T17:29:26.738Z,101265.00
2022-10-05T17:32:33.876Z,101262.00
2022-10-05T17:35:01.137Z,101276.00
2022-10-05T17:38:05.379Z,101283.00
2022-10-05T17:40:34.890Z,101279.00
2022-10-05T17:43:17.212Z,101282.00
2022-10-05T17:45:44.222Z,101290.00
2022-10-05T17:48:49.204Z,101291.00
2022-10-05T17:51:46.821Z,101295.00
2022-10-05T17:55:03.411Z,101308.00
2022-10-05T17:57:32.138Z,101306.00
2022-10-05T18:00:25.683Z,101311.00
2022-10-05T18:02:58.381Z,101308.00
2022-10-05T18:05:30.413Z,101312.00
2022-10-05T18:08:13.075Z,101306.00
2022-10-05T18:11:09.249Z,101306.00
2022-10-05T18:13:45.606Z,101308.00
2022-10-05T18:16:34.336Z,101312.00
2022-10-05T18:19:02.422Z,101306.00
2022-10-05T18:21:34.986Z,101320.00
2022-10-05T18:24:37.217Z,101310.00
2022-10-05T18:27:48.253Z,101306.00
2022-10-05T18:30:44.872Z,101317.00
2022-10-05T18:34:01.932Z,101320.00
2022-10-05T18:36:58.842Z,101327.00
2022-10-05T18:40:16.748Z,101331.00
2022-10-05T18:42:49.632Z,101330.00
2022-10-05T18:45:37.536Z,101325.00
2022-10-05T18:48:19.980Z,101337.00
2022-10-05T18:51:27.367Z,101336.00
2022-10-05T18:54:03.329Z,101333.00
2022-10-05T18:56:42.293Z,101341.00
2022-10-05T18:59:48.428Z,101355.00
2022-10-05T19:02:27.646Z,101341.00
2022-10-05T19:05:09.189Z,101357.00
2022-10-05T19:08:13.297Z,101349.00
2022-10-05T19:10:51.328Z,101346.00
2022-10-05T19:13:31.202Z,101343.00
2022-10-05T19:16:17.138Z,101345.00
2022-10-05T19:19:09.659Z,101357.00
2022-10-05T19:21:54.144Z,101362.00
2022-10-05T19:24:33.896Z,101347.00
2022-10-05T19:27:10.419Z,101351.00
2022-10-05T19:30:19.215Z,101358.00
2022-10-05T19:33:23.855Z,101351.00
2022-10-05T19:36:35.628Z,101362.00
2022-10-05T19:39:14.375Z,101368.00
2022-10-05T19:42:45.172Z,101359.00
2022-10-05T19:45:35.956Z,101362.00
2022-10-05T19:48:44.671Z,101356.00
2022-10-05T19:51:29.399Z,101358.00
2022-10-05T19:54:25.917Z,101361.00
2022-10-05T19:56:55.161Z,101364.00
2022-10-05T19:59:34.911Z,101369.00
2022-10-05T20:02:02.600Z,101368.00
2022-10-05T20:04:43.297Z,101372.00
2022-10-05T20:07:21.786Z,101376.00
2022-10-05T20:10:24.670Z,101371.00
2022-10-05T20:12:58.778Z,101386.00
2022-10-05T20:15:54.321Z,101385.00
2022-10-05T20:19:07.276Z,101389.00
2022-10-05T20:21:48.146Z,101398.00
2022-10-05T20:24:18.547Z,101415.00
2022-10-05T20:27:02.380Z,101406.00
2022-10-05T20:29:38.826Z,101403.00
2022-10-05T20:32:19.521Z,101400.00
2022-10-05T20:34:49.507Z,101403.00
2022-10-05T20:37:19.175Z,101418.00
2022-10-05T20:39:48.087Z,101418.00
2022-10-05T20:42:15.251Z,101430.00
2022-10-05T20:44:42.842Z,101435.00
2022-10-05T20:47:13.872Z,101432.00
2022-10-05T20:49:41.401Z,101432.00
2022-10-05T20:52:11.503Z,101453.00
2022-10-05T20:54:39.594Z,101448.00
2022-10-05T20:57:10.312Z,101484.00
2022-10-05T20:59:37.970Z,101492.00
2022-10-05T21:02:06.289Z,101510.00
2022-10-05T21:04:40.882Z,101513.00
2022-10-05T21:07:09.763Z,101530.00
2022-10-05T21:09:38.586Z,101516.00
2022-10-05T21:12:06.054Z,101520.00
2022-10-05T21:14:34.574Z,101526.00
2022-10-05T21:17:03.845Z,101522.00
2022-10-05T21:19:34.280Z,101537.00
2022-10-05T21:22:02.651Z,101534.00
2022-10-05T21:24:31.995Z,101544.00
2022-10-05T21:26:59.273Z,101544.00
2022-10-05T21:29:26.604Z,101561.00
2022-10-05T21:31:53.885Z,101560.00
2022-10-05T21:34:21.216Z,101543.00
2022-10-05T21:36:48.310Z,101556.00
2022-10-05T21:39:15.471Z,101574.00
2022-10-05T21:41:42.759Z,101574.00
2022-10-05T21:44:09.909Z,101569.00
2022-10-05T21:46:38.657Z,101565.00
2022-10-05T21:49:08.416Z,101584.00
2022-10-05T21:51:36.777Z,101571.00
2022-10-05T21:54:18.691Z,101579.00
2022-10-05T21:56:51.782Z,101575.00
2022-10-05T21:59:24.136Z,101591.00
2022-10-05T22:01:51.251Z,101608.00
2022-10-05T22:04:37.178Z,101618.00
2022-10-05T22:07:19.001Z,101629.00
2022-10-05T22:09:51.782Z,101636.00
2022-10-05T22:12:22.356Z,101649.00
2022-10-05T22:14:49.866Z,101695.00
2022-10-05T22:17:29.620Z,101705.00
2022-10-05T22:19:58.800Z,101715.00
2022-10-05T22:22:28.242Z,101723.00
2022-10-05T22:24:56.535Z,101728.00
2022-10-05T22:27:27.842Z,101737.00
2022-10-05T22:29:58.195Z,101753.00
2022-10-05T22:32:25.549Z,101757.00
2022-10-05T22:34:52.606Z,101736.00
2022-10-05T22:37:19.774Z,101763.00
2022-10-05T22:39:46.888Z,101774.00
2022-10-05T22:42:14.073Z,101770.00
2022-10-05T22:44:42.371Z,101777.00
2022-10-05T22:47:09.503Z,101786.00
2022-10-05T22:49:36.646Z,101758.00
2022-10-05T22:52:04.112Z,101776.00
2022-10-05T22:54:34.274Z,101761.00
2022-10-05T22:57:03.831Z,101773.00
2022-10-05T22:59:31.466Z,101771.00
2022-10-05T23:01:59.137Z,101768.00
2022-10-05T23:04:26.444Z,101767.00
2022-10-05T23:06:53.498Z,101772.00
2022-10-05T23:09:20.578Z,101781.00
2022-10-05T23:11:52.149Z,101781.00
2022-10-05T23:14:19.750Z,101787.00
2022-10-05T23:16:47.767Z,101790.00
2022-10-05T23:19:23.596Z,101793.00
2022-10-05T23:21:50.631Z,101791.00
2022-10-05T23:24:17.813Z,101798.00
2022-10-05T23:26:44.928Z,101805.00
2022-10-05T23:29:12.078Z,101805.00
2022-10-05T23:31:39.476Z,101825.00
2022-10-05T23:34:06.588Z,101824.00
2022-10-05T23:36:33.801Z,101835.00
2022-10-05T23:39:03.277Z,101831.00
2022-10-05T23:41:30.353Z,101841.00
2022-10-05T23:43:57.535Z,101826.00
2022-10-05T23:46:24.709Z,101837.00
2022-10-05T23:48:53.398Z,101835.00
2022-10-05T23:51:20.648Z,101834.00
2022-10-05T23:53:47.828Z,101854.00
2022-10-05T23:56:15.435Z,101852.00
2022-10-05T23:58:42.642Z,101863.00
